Time;durP1;ratioP1;P1;durP2;ratioP2;P2;SDS_P1;SDS_P2;PMS_P1;PMS_P2;Temp;Humidity;BMP_temperature;BMP_pressure;BME280_temperature;BME280_humidity;BME280_pressure;Samples;Min_cycle;Max_cycle;Signal;HPM_P1;HPM_P2
2022/03/25 00:00:20;;;;;;;25.97;15.50;;;;;;;;;;7364735;19;21344;-79
2022/03/25 00:02:49;;;;;;;22.20;14.70;;;;;;;;;;7366344;19;21746;-79
2022/03/25 00:05:19;;;;;;;28.13;15.90;;;;;;;;;;7367498;19;20428;-78
2022/03/25 00:07:48;;;;;;;23.53;14.30;;;;;;;;;;7375484;19;21147;-79
2022/03/25 00:10:21;;;;;;;26.38;15.10;;;;;;;;;;7368361;19;20552;-78
2022/03/25 00:12:51;;;;;;;28.30;15.80;;;;;;;;;;7367024;19;20143;-79
2022/03/25 00:15:21;;;;;;;26.67;15.50;;;;;;;;;;7368018;19;20453;-79
2022/03/25 00:17:51;;;;;;;24.63;15.57;;;;;;;;;;7364823;19;20376;-78
2022/03/25 00:20:20;;;;;;;25.77;14.93;;;;;;;;;;7369959;19;20139;-78
2022/03/25 00:22:50;;;;;;;25.40;14.27;;;;;;;;;;7375956;19;20135;-78
2022/03/25 00:25:23;;;;;;;23.83;14.57;;;;;;;;;;7375874;19;20475;-79
2022/03/25 00:27:52;;;;;;;24.90;13.60;;;;;;;;;;7377096;19;20413;-78
2022/03/25 00:30:22;;;;;;;27.03;13.40;;;;;;;;;;7381346;19;20359;-79
2022/03/25 00:32:52;;;;;;;25.40;14.40;;;;;;;;;;7373838;19;20859;-79
2022/03/25 00:35:24;;;;;;;27.42;15.32;;;;;;;;;;7368838;19;21266;-77
2022/03/25 00:37:54;;;;;;;23.97;14.10;;;;;;;;;;7366489;19;20144;-78
2022/03/25 00:40:29;;;;;;;23.30;14.10;;;;;;;;;;7363455;19;20372;-79
2022/03/25 00:42:58;;;;;;;20.88;14.35;;;;;;;;;;7367767;19;20408;-79
2022/03/25 00:45:29;;;;;;;23.87;12.97;;;;;;;;;;7376707;19;20132;-78
2022/03/25 00:47:59;;;;;;;27.30;13.65;;;;;;;;;;7356429;19;21774;-78
2022/03/25 00:50:29;;;;;;;24.63;13.83;;;;;;;;;;7368296;19;20255;-79
2022/03/25 00:52:58;;;;;;;22.48;13.70;;;;;;;;;;7367453;19;20428;-79
2022/03/25 00:55:31;;;;;;;24.33;15.25;;;;;;;;;;7358678;19;20631;-79
2022/03/25 00:58:00;;;;;;;25.33;14.52;;;;;;;;;;7360764;19;20147;-78
2022/03/25 01:00:30;;;;;;;27.13;14.93;;;;;;;;;;7395324;19;20152;-79
2022/03/25 01:03:00;;;;;;;25.48;13.95;;;;;;;;;;7389124;19;20150;-79
2022/03/25 01:05:32;;;;;;;27.30;15.20;;;;;;;;;;7393014;19;20168;-79
2022/03/25 01:08:02;;;;;;;28.23;15.38;;;;;;;;;;7389512;19;20131;-78
2022/03/25 01:10:34;;;;;;;25.45;13.70;;;;;;;;;;7404569;19;20142;-78
2022/03/25 01:13:04;;;;;;;25.47;14.67;;;;;;;;;;7408059;19;20184;-78
2022/03/25 01:15:36;;;;;;;25.65;13.98;;;;;;;;;;7394697;19;20384;-78
2022/03/25 01:18:06;;;;;;;26.27;13.73;;;;;;;;;;7391551;19;20778;-80
2022/03/25 01:20:38;;;;;;;25.87;15.10;;;;;;;;;;7412432;19;20388;-79
2022/03/25 01:23:09;;;;;;;24.70;14.75;;;;;;;;;;7416337;19;20516;-80
2022/03/25 01:25:43;;;;;;;24.10;14.60;;;;;;;;;;7424385;19;20160;-79
2022/03/25 01:28:13;;;;;;;23.30;14.03;;;;;;;;;;7415743;19;20131;-81
2022/03/25 01:30:43;;;;;;;25.60;14.45;;;;;;;;;;7422027;19;20468;-80
2022/03/25 01:33:15;;;;;;;24.90;14.50;;;;;;;;;;7428804;19;20172;-80
2022/03/25 01:35:44;;;;;;;25.52;14.52;;;;;;;;;;7428705;19;20417;-80
2022/03/25 01:38:14;;;;;;;26.42;14.20;;;;;;;;;;7405991;19;20136;-80
2022/03/25 01:40:46;;;;;;;26.55;15.23;;;;;;;;;;7390480;19;20715;-79
2022/03/25 01:43:16;;;;;;;26.40;14.53;;;;;;;;;;7385934;19;20663;-79
2022/03/25 01:45:45;;;;;;;21.42;13.43;;;;;;;;;;7383927;19;20416;-79
2022/03/25 01:48:17;;;;;;;29.73;14.98;;;;;;;;;;7375850;19;20143;-79
2022/03/25 01:50:48;;;;;;;23.90;14.00;;;;;;;;;;7377823;19;20896;-79
2022/03/25 01:53:18;;;;;;;27.45;15.60;;;;;;;;;;7372114;19;20178;-79
2022/03/25 01:55:53;;;;;;;24.15;14.30;;;;;;;;;;7368666;19;20178;-78
2022/03/25 01:58:23;;;;;;;26.52;15.52;;;;;;;;;;7375097;19;20151;-78
2022/03/25 02:00:55;;;;;;;28.42;15.77;;;;;;;;;;7367987;19;20467;-78
2022/03/25 02:03:24;;;;;;;22.40;13.20;;;;;;;;;;7368273;19;21094;-78
2022/03/25 02:05:54;;;;;;;21.23;14.02;;;;;;;;;;7364735;19;20131;-78
2022/03/25 02:08:24;;;;;;;24.67;14.02;;;;;;;;;;7366199;19;20795;-77
2022/03/25 02:10:57;;;;;;;23.02;14.45;;;;;;;;;;7364151;19;20150;-79
2022/03/25 02:13:26;;;;;;;23.35;13.55;;;;;;;;;;7361695;19;20147;-79
2022/03/25 02:16:02;;;;;;;26.52;15.07;;;;;;;;;;7365693;19;20143;-80
2022/03/25 02:18:32;;;;;;;19.30;12.93;;;;;;;;;;7374279;19;20150;-79
2022/03/25 02:21:02;;;;;;;24.95;14.98;;;;;;;;;;7368480;19;20139;-80
2022/03/25 02:23:34;;;;;;;24.35;14.40;;;;;;;;;;7364312;19;20576;-79
2022/03/25 02:26:05;;;;;;;24.17;14.50;;;;;;;;;;7357695;19;20984;-79
2022/03/25 02:28:37;;;;;;;22.88;13.45;;;;;;;;;;7364430;19;20135;-77
2022/03/25 02:31:08;;;;;;;27.90;16.50;;;;;;;;;;7358363;19;20139;-78
2022/03/25 02:33:40;;;;;;;24.52;14.95;;;;;;;;;;7361510;19;20656;-78
2022/03/25 02:36:10;;;;;;;25.30;13.65;;;;;;;;;;7353108;19;20600;-79
2022/03/25 02:38:45;;;;;;;24.35;13.70;;;;;;;;;;7355663;19;20147;-80
2022/03/25 02:41:14;;;;;;;23.77;15.30;;;;;;;;;;7358055;19;20139;-79
2022/03/25 02:43:44;;;;;;;26.05;13.90;;;;;;;;;;7358790;19;20144;-79
2022/03/25 02:46:16;;;;;;;24.80;13.55;;;;;;;;;;7355027;19;20158;-79
2022/03/25 02:48:48;;;;;;;25.95;16.95;;;;;;;;;;7361108;19;20146;-79
2022/03/25 02:51:17;;;;;;;24.27;15.07;;;;;;;;;;7379023;19;20140;-79
2022/03/25 02:53:49;;;;;;;31.70;15.07;;;;;;;;;;7352233;19;20199;-79
2022/03/25 02:56:19;;;;;;;23.70;14.73;;;;;;;;;;7358478;19;20155;-79
2022/03/25 02:58:49;;;;;;;23.35;13.98;;;;;;;;;;7355734;19;20174;-81
2022/03/25 03:01:18;;;;;;;27.67;14.18;;;;;;;;;;7349935;19;20135;-80
2022/03/25 03:03:50;;;;;;;27.35;15.40;;;;;;;;;;7348497;19;20701;-79
2022/03/25 03:06:20;;;;;;;26.42;14.88;;;;;;;;;;7351262;19;20131;-79
2022/03/25 03:08:52;;;;;;;26.60;15.68;;;;;;;;;;7350660;19;20208;-79
2022/03/25 03:11:23;;;;;;;25.67;13.90;;;;;;;;;;7352390;19;20135;-79
2022/03/25 03:13:53;;;;;;;23.92;14.80;;;;;;;;;;7346287;19;20140;-79
2022/03/25 03:16:23;;;;;;;25.33;13.70;;;;;;;;;;7350768;19;20607;-79
2022/03/25 03:18:52;;;;;;;25.17;14.60;;;;;;;;;;7341349;19;20160;-78
2022/03/25 03:21:24;;;;;;;27.80;14.02;;;;;;;;;;7342576;19;21407;-80
2022/03/25 03:23:59;;;;;;;28.67;15.00;;;;;;;;;;7356757;19;20156;-79
2022/03/25 03:26:29;;;;;;;27.20;13.80;;;;;;;;;;7376723;19;20825;-79
2022/03/25 03:28:59;;;;;;;23.27;13.00;;;;;;;;;;7365812;19;20152;-77
2022/03/25 03:31:29;;;;;;;25.80;15.13;;;;;;;;;;7343810;19;20143;-79
2022/03/25 03:33:58;;;;;;;29.70;15.65;;;;;;;;;;7348422;19;20135;-80
2022/03/25 03:36:30;;;;;;;26.67;14.68;;;;;;;;;;7346720;19;20845;-79
2022/03/25 03:39:05;;;;;;;24.05;14.50;;;;;;;;;;7360446;19;20156;-79
2022/03/25 03:41:35;;;;;;;24.58;14.85;;;;;;;;;;7372167;19;20144;-78
2022/03/25 03:44:07;;;;;;;25.80;15.43;;;;;;;;;;7349202;19;20452;-79
2022/03/25 03:46:37;;;;;;;25.75;15.90;;;;;;;;;;7358302;19;20535;-79
2022/03/25 03:49:06;;;;;;;24.08;14.45;;;;;;;;;;7357965;19;20136;-79
2022/03/25 03:51:36;;;;;;;29.08;15.45;;;;;;;;;;7379461;19;20631;-80
2022/03/25 03:54:08;;;;;;;26.30;15.05;;;;;;;;;;7371752;19;20136;-79
2022/03/25 03:56:38;;;;;;;28.20;15.60;;;;;;;;;;7358379;19;20167;-80
2022/03/25 03:59:08;;;;;;;23.38;13.90;;;;;;;;;;7361245;19;20135;-79
2022/03/25 04:01:37;;;;;;;26.58;15.68;;;;;;;;;;7364696;19;20249;-79
2022/03/25 04:04:09;;;;;;;30.05;13.68;;;;;;;;;;7373975;19;20135;-79
2022/03/25 04:06:39;;;;;;;28.35;15.40;;;;;;;;;;7381554;19;20779;-79
2022/03/25 04:09:11;;;;;;;26.88;15.15;;;;;;;;;;7364627;19;24147;-79
2022/03/25 04:11:41;;;;;;;28.73;15.05;;;;;;;;;;7361766;19;20235;-77
2022/03/25 04:14:10;;;;;;;26.63;15.32;;;;;;;;;;7380125;19;20232;-77
2022/03/25 04:16:40;;;;;;;24.20;14.18;;;;;;;;;;7371483;19;20143;-77
2022/03/25 04:19:10;;;;;;;25.38;14.65;;;;;;;;;;7364628;19;20136;-79
2022/03/25 04:21:39;;;;;;;27.33;15.25;;;;;;;;;;7378521;19;20135;-78
2022/03/25 04:24:12;;;;;;;28.52;15.60;;;;;;;;;;7367613;19;20501;-78
2022/03/25 04:26:41;;;;;;;34.67;15.02;;;;;;;;;;7384297;19;20588;-78
2022/03/25 04:29:11;;;;;;;31.30;16.08;;;;;;;;;;7363923;19;20143;-79
2022/03/25 04:31:43;;;;;;;30.58;14.98;;;;;;;;;;7368934;19;20140;-78
2022/03/25 04:34:13;;;;;;;28.45;15.75;;;;;;;;;;7371062;19;20143;-78
2022/03/25 04:36:43;;;;;;;29.55;15.88;;;;;;;;;;7378302;19;20533;-79
2022/03/25 04:39:15;;;;;;;28.23;15.50;;;;;;;;;;7373756;19;20203;-79
2022/03/25 04:41:44;;;;;;;28.38;16.88;;;;;;;;;;7395783;19;20143;-83
2022/03/25 04:44:14;;;;;;;26.55;15.55;;;;;;;;;;7420965;19;20136;-81
2022/03/25 04:46:44;;;;;;;25.40;15.40;;;;;;;;;;7422503;19;20160;-80
2022/03/25 04:49:13;;;;;;;27.38;15.35;;;;;;;;;;7429768;19;20156;-81
2022/03/25 04:51:45;;;;;;;33.78;16.13;;;;;;;;;;7416427;19;20148;-82
2022/03/25 04:54:18;;;;;;;28.83;15.82;;;;;;;;;;7416073;19;20136;-81
2022/03/25 04:56:47;;;;;;;28.15;15.73;;;;;;;;;;7409416;19;20139;-81
2022/03/25 04:59:17;;;;;;;30.08;16.33;;;;;;;;;;7404528;19;20160;-81
2022/03/25 05:01:46;;;;;;;25.10;14.75;;;;;;;;;;7415286;19;20130;-81
2022/03/25 05:04:16;;;;;;;29.10;15.15;;;;;;;;;;7418443;19;20139;-80
2022/03/25 05:06:46;;;;;;;30.48;16.50;;;;;;;;;;7419026;19;20671;-80
2022/03/25 05:09:18;;;;;;;25.20;14.00;;;;;;;;;;7427057;19;20132;-81
2022/03/25 05:11:47;;;;;;;26.38;14.63;;;;;;;;;;7425261;19;20160;-81
2022/03/25 05:14:17;;;;;;;31.52;16.10;;;;;;;;;;7422944;19;20175;-81
2022/03/25 05:16:52;;;;;;;29.25;15.65;;;;;;;;;;7407479;19;20139;-79
2022/03/25 05:19:22;;;;;;;29.88;15.73;;;;;;;;;;7390839;19;20153;-79
2022/03/25 05:21:51;;;;;;;28.92;16.20;;;;;;;;;;7392520;19;20139;-80
2022/03/25 05:24:23;;;;;;;24.27;15.60;;;;;;;;;;7386227;19;20135;-81
2022/03/25 05:26:56;;;;;;;31.35;15.77;;;;;;;;;;7384825;19;20143;-80
2022/03/25 05:29:26;;;;;;;29.02;15.40;;;;;;;;;;7382084;19;20143;-80
2022/03/25 05:31:56;;;;;;;27.92;15.45;;;;;;;;;;7385001;19;20211;-77
2022/03/25 05:34:26;;;;;;;26.48;15.75;;;;;;;;;;7385636;19;20146;-83
2022/03/25 05:36:58;;;;;;;27.58;15.63;;;;;;;;;;7382862;19;20212;-81
2022/03/25 05:39:30;;;;;;;22.98;13.93;;;;;;;;;;7377770;19;20143;-80
2022/03/25 05:42:00;;;;;;;26.05;14.60;;;;;;;;;;7380482;19;20143;-81
2022/03/25 05:44:32;;;;;;;26.58;13.90;;;;;;;;;;7382528;19;20131;-81
2022/03/25 05:47:02;;;;;;;30.13;15.85;;;;;;;;;;7383666;19;20612;-81
2022/03/25 05:49:31;;;;;;;27.98;15.30;;;;;;;;;;7379273;19;20135;-79
2022/03/25 05:52:02;;;;;;;26.45;16.10;;;;;;;;;;7383133;19;20577;-79
2022/03/25 05:54:36;;;;;;;30.85;15.60;;;;;;;;;;7376523;19;20163;-81
2022/03/25 05:57:07;;;;;;;27.30;15.18;;;;;;;;;;7381153;19;20198;-82
2022/03/25 05:59:37;;;;;;;34.85;17.30;;;;;;;;;;7371807;19;20146;-74
2022/03/25 06:02:08;;;;;;;30.10;15.52;;;;;;;;;;7378536;19;20127;-74
2022/03/25 06:04:37;;;;;;;34.33;15.32;;;;;;;;;;7375378;19;20481;-73
2022/03/25 06:07:07;;;;;;;38.75;16.83;;;;;;;;;;7377194;19;20148;-81
2022/03/25 06:09:39;;;;;;;35.55;16.63;;;;;;;;;;7373358;19;20203;-82
2022/03/25 06:12:12;;;;;;;28.75;16.42;;;;;;;;;;7383050;19;20150;-81
2022/03/25 06:14:41;;;;;;;26.17;14.63;;;;;;;;;;7373489;19;20131;-81
2022/03/25 06:17:11;;;;;;;33.00;16.67;;;;;;;;;;7376945;19;20595;-82
2022/03/25 06:19:41;;;;;;;36.78;16.70;;;;;;;;;;7371719;19;20237;-81
2022/03/25 06:22:10;;;;;;;28.73;15.75;;;;;;;;;;7372417;19;20147;-82
2022/03/25 06:24:45;;;;;;;29.83;16.30;;;;;;;;;;7364106;19;20131;-82
2022/03/25 06:27:14;;;;;;;29.92;15.48;;;;;;;;;;7371669;19;21053;-76
2022/03/25 06:29:44;;;;;;;32.10;16.17;;;;;;;;;;7375491;19;20490;-83
2022/03/25 06:32:16;;;;;;;31.60;16.17;;;;;;;;;;7361373;19;20173;-81
2022/03/25 06:34:45;;;;;;;31.42;19.08;;;;;;;;;;7379438;19;20211;-82
2022/03/25 06:37:15;;;;;;;26.63;14.98;;;;;;;;;;7382563;19;20140;-81
2022/03/25 06:39:49;;;;;;;26.70;15.32;;;;;;;;;;7377888;19;20138;-81
2022/03/25 06:42:21;;;;;;;31.77;17.13;;;;;;;;;;7382769;19;20551;-81
2022/03/25 06:44:53;;;;;;;26.02;15.50;;;;;;;;;;7378700;19;20601;-81
2022/03/25 06:47:22;;;;;;;31.35;17.42;;;;;;;;;;7380328;19;20181;-80
2022/03/25 06:49:52;;;;;;;26.92;15.52;;;;;;;;;;7375049;19;21072;-79
2022/03/25 06:52:22;;;;;;;26.80;15.18;;;;;;;;;;7375672;19;20134;-80
2022/03/25 06:54:57;;;;;;;26.88;16.65;;;;;;;;;;7375429;19;20203;-79
2022/03/25 06:57:29;;;;;;;28.95;17.33;;;;;;;;;;7374254;19;20151;-80
2022/03/25 07:00:02;;;;;;;30.35;16.75;;;;;;;;;;7364238;19;20170;-79
2022/03/25 07:02:32;;;;;;;30.95;16.05;;;;;;;;;;7374870;19;20747;-79
2022/03/25 07:05:02;;;;;;;26.42;16.70;;;;;;;;;;7376431;19;20567;-79
2022/03/25 07:07:34;;;;;;;26.17;16.23;;;;;;;;;;7366577;19;20152;-79
2022/03/25 07:10:09;;;;;;;30.40;17.27;;;;;;;;;;7374640;19;20415;-80
2022/03/25 07:12:39;;;;;;;29.17;17.67;;;;;;;;;;7377530;19;20387;-80
2022/03/25 07:15:12;;;;;;;27.53;15.97;;;;;;;;;;7373203;19;20412;-80
2022/03/25 07:17:44;;;;;;;26.50;16.13;;;;;;;;;;7376149;19;21026;-82
2022/03/25 07:20:15;;;;;;;28.97;17.57;;;;;;;;;;7378332;19;20401;-81
2022/03/25 07:22:44;;;;;;;27.73;17.30;;;;;;;;;;7378738;19;20518;-80
2022/03/25 07:25:17;;;;;;;24.50;16.17;;;;;;;;;;7383517;19;20419;-82
2022/03/25 07:27:48;;;;;;;28.33;17.13;;;;;;;;;;7384018;19;20943;-81
2022/03/25 07:30:18;;;;;;;28.80;17.60;;;;;;;;;;7387583;19;20408;-81
2022/03/25 07:32:48;;;;;;;35.60;19.77;;;;;;;;;;7382088;19;20400;-81
2022/03/25 07:35:18;;;;;;;30.10;17.93;;;;;;;;;;7384199;19;20372;-75
2022/03/25 07:37:48;;;;;;;26.83;18.33;;;;;;;;;;7372862;19;21406;-76
2022/03/25 07:40:22;;;;;;;26.10;17.80;;;;;;;;;;7417562;19;21156;-79
2022/03/25 07:42:51;;;;;;;27.50;17.93;;;;;;;;;;7417282;19;20449;-79
2022/03/25 07:45:23;;;;;;;24.77;17.50;;;;;;;;;;7409803;19;20412;-78
2022/03/25 07:47:53;;;;;;;31.27;18.47;;;;;;;;;;7413127;19;20408;-79
2022/03/25 07:50:25;;;;;;;27.80;17.80;;;;;;;;;;7416064;19;20454;-77
2022/03/25 07:52:55;;;;;;;29.63;18.43;;;;;;;;;;7424698;19;20396;-78
2022/03/25 07:55:28;;;;;;;30.83;17.90;;;;;;;;;;7426498;19;20457;-78
2022/03/25 07:57:59;;;;;;;29.30;18.27;;;;;;;;;;7432085;19;20445;-78
2022/03/25 08:00:29;;;;;;;26.50;17.80;;;;;;;;;;7435942;19;20411;-78
2022/03/25 08:03:01;;;;;;;28.50;17.60;;;;;;;;;;7426767;19;20772;-79
2022/03/25 08:05:31;;;;;;;33.60;18.30;;;;;;;;;;7400466;19;20407;-78
2022/03/25 08:08:03;;;;;;;28.90;18.87;;;;;;;;;;7395570;19;20423;-78
2022/03/25 08:10:36;;;;;;;30.13;19.87;;;;;;;;;;7390739;19;21823;-78
2022/03/25 08:13:07;;;;;;;28.63;18.30;;;;;;;;;;7391034;19;20748;-77
2022/03/25 08:15:37;;;;;;;31.07;19.43;;;;;;;;;;7389160;19;20404;-78
2022/03/25 08:18:07;;;;;;;34.47;20.20;;;;;;;;;;7388227;19;20385;-78
2022/03/25 08:20:39;;;;;;;30.00;18.97;;;;;;;;;;7389852;19;20426;-77
2022/03/25 08:23:10;;;;;;;27.30;18.40;;;;;;;;;;7385512;19;20743;-78
2022/03/25 08:28:24;;;;;;;35.23;19.23;;;;;;;;;;7383244;19;21335;-77
2022/03/25 08:30:54;;;;;;;28.43;20.10;;;;;;;;;;7387928;19;20420;-79
2022/03/25 08:33:24;;;;;;;29.70;18.40;;;;;;;;;;7385783;19;20403;-79
2022/03/25 08:35:53;;;;;;;31.50;20.73;;;;;;;;;;7384112;19;21049;-79
2022/03/25 08:38:23;;;;;;;34.00;18.17;;;;;;;;;;7384794;19;20412;-79
2022/03/25 08:40:55;;;;;;;31.17;19.50;;;;;;;;;;7387554;19;20408;-79
2022/03/25 08:43:25;;;;;;;33.67;21.67;;;;;;;;;;7386754;19;20530;-79
2022/03/25 08:45:56;;;;;;;28.57;21.00;;;;;;;;;;7389803;19;20421;-78
2022/03/25 08:48:26;;;;;;;30.90;22.67;;;;;;;;;;7391836;19;20430;-79
2022/03/25 08:50:58;;;;;;;34.50;22.77;;;;;;;;;;7393834;19;20439;-79
2022/03/25 08:53:30;;;;;;;28.63;21.73;;;;;;;;;;7398160;19;20765;-80
2022/03/25 08:56:02;;;;;;;27.90;21.23;;;;;;;;;;7396079;19;20443;-80
2022/03/25 08:58:32;;;;;;;30.00;22.40;;;;;;;;;;7401465;19;20400;-79
2022/03/25 09:01:01;;;;;;;30.83;22.93;;;;;;;;;;7399621;19;20932;-80
2022/03/25 09:03:34;;;;;;;33.50;23.77;;;;;;;;;;7389802;19;20519;-79
2022/03/25 09:06:06;;;;;;;28.00;21.53;;;;;;;;;;7386834;19;20405;-79
2022/03/25 09:08:35;;;;;;;32.20;24.83;;;;;;;;;;7386913;19;21026;-79
2022/03/25 09:11:09;;;;;;;27.73;22.50;;;;;;;;;;7384958;19;20425;-79
2022/03/25 09:13:40;;;;;;;37.10;24.27;;;;;;;;;;7386878;19;20419;-79
2022/03/25 09:16:11;;;;;;;30.50;23.33;;;;;;;;;;7381121;19;20852;-79
2022/03/25 09:18:43;;;;;;;31.67;22.83;;;;;;;;;;7378986;19;20403;-79
2022/03/25 09:21:12;;;;;;;28.80;23.37;;;;;;;;;;7382373;19;20408;-79
2022/03/25 09:23:44;;;;;;;31.07;23.23;;;;;;;;;;7380576;19;20395;-79
2022/03/25 09:26:19;;;;;;;29.73;22.97;;;;;;;;;;7380194;19;20424;-79
2022/03/25 09:28:51;;;;;;;29.77;22.80;;;;;;;;;;7381215;19;20413;-78
2022/03/25 09:31:21;;;;;;;33.03;23.70;;;;;;;;;;7383591;19;20891;-79
2022/03/25 09:35:08;;;;;;;27.30;22.93;;;;;;;;;;7377919;19;21711;-79
2022/03/25 09:36:43;;;;;;;31.60;23.50;;;;;;;;;;7377021;19;20428;-78
2022/03/25 09:39:12;;;;;;;30.10;24.37;;;;;;;;;;7376264;19;20401;-79
2022/03/25 09:41:44;;;;;;;29.60;24.10;;;;;;;;;;7379495;19;21211;-79
2022/03/25 09:44:17;;;;;;;29.37;22.40;;;;;;;;;;7373743;19;20412;-79
2022/03/25 09:46:50;;;;;;;26.90;22.70;;;;;;;;;;7373412;19;20495;-78
2022/03/25 09:49:20;;;;;;;29.93;25.20;;;;;;;;;;7373739;19;20409;-79
2022/03/25 09:51:52;;;;;;;29.90;26.00;;;;;;;;;;7377400;19;21389;-78
2022/03/25 09:54:23;;;;;;;29.60;24.03;;;;;;;;;;7379668;19;20547;-78
2022/03/25 09:56:56;;;;;;;31.77;24.90;;;;;;;;;;7376842;19;20435;-80
2022/03/25 09:59:25;;;;;;;32.97;24.97;;;;;;;;;;7378519;19;20935;-78
2022/03/25 10:01:55;;;;;;;29.90;24.30;;;;;;;;;;7375117;19;20409;-78
2022/03/25 10:04:39;;;;;;;32.20;24.50;;;;;;;;;;7376986;19;21572;-79
2022/03/25 10:07:17;;;;;;;30.80;25.50;;;;;;;;;;7375025;19;20408;-78
2022/03/25 10:09:47;;;;;;;31.50;24.90;;;;;;;;;;7380018;19;20383;-79
2022/03/25 10:12:28;;;;;;;30.57;25.10;;;;;;;;;;7376074;19;20419;-77
2022/03/25 10:15:13;;;;;;;31.93;26.27;;;;;;;;;;7378791;19;20408;-79
2022/03/25 10:17:49;;;;;;;29.80;24.43;;;;;;;;;;7378568;19;20408;-79
2022/03/25 10:20:19;;;;;;;27.60;24.43;;;;;;;;;;7380063;19;21026;-80
2022/03/25 10:22:59;;;;;;;31.07;25.00;;;;;;;;;;7379633;19;20919;-79
2022/03/25 10:25:35;;;;;;;27.50;24.50;;;;;;;;;;7411224;19;20408;-79
2022/03/25 10:28:09;;;;;;;28.33;25.20;;;;;;;;;;7414252;19;20400;-79
2022/03/25 10:30:42;;;;;;;31.13;25.70;;;;;;;;;;7416490;19;20430;-79
2022/03/25 10:33:12;;;;;;;29.03;24.63;;;;;;;;;;7416589;19;20407;-77
2022/03/25 10:35:55;;;;;;;27.43;23.93;;;;;;;;;;7416845;19;20401;-79
2022/03/25 10:38:25;;;;;;;27.23;24.10;;;;;;;;;;7421754;19;20396;-79
2022/03/25 10:40:56;;;;;;;27.80;24.00;;;;;;;;;;7428271;19;20412;-80
2022/03/25 10:43:28;;;;;;;27.20;23.47;;;;;;;;;;7427605;19;20404;-80
2022/03/25 10:45:57;;;;;;;28.97;24.80;;;;;;;;;;7430628;19;20449;-77
2022/03/25 10:48:28;;;;;;;32.53;25.53;;;;;;;;;;7428072;19;20405;-80
2022/03/25 10:51:02;;;;;;;60.47;37.70;;;;;;;;;;7427772;19;20404;-80
2022/03/25 10:53:33;;;;;;;39.33;29.23;;;;;;;;;;7401636;19;20399;-80
2022/03/25 10:56:03;;;;;;;28.80;24.50;;;;;;;;;;7390305;19;20780;-80
2022/03/25 10:58:36;;;;;;;29.47;26.27;;;;;;;;;;7385160;19;20409;-79
2022/03/25 11:01:09;;;;;;;30.10;25.63;;;;;;;;;;7381747;19;20400;-79
2022/03/25 11:03:39;;;;;;;31.87;26.60;;;;;;;;;;7382974;19;20960;-79
2022/03/25 11:06:13;;;;;;;29.37;23.90;;;;;;;;;;7379821;19;20412;-79
2022/03/25 11:08:43;;;;;;;35.00;27.90;;;;;;;;;;7379980;19;20404;-78
2022/03/25 11:11:13;;;;;;;46.40;32.50;;;;;;;;;;7379802;19;20435;-79
2022/03/25 11:13:45;;;;;;;29.70;25.93;;;;;;;;;;7378080;19;20421;-79
2022/03/25 11:16:17;;;;;;;26.80;23.47;;;;;;;;;;7376457;19;20400;-78
2022/03/25 11:18:47;;;;;;;27.87;24.93;;;;;;;;;;7371216;19;20405;-79
2022/03/25 11:21:18;;;;;;;28.67;25.40;;;;;;;;;;7377383;19;21170;-79
2022/03/25 11:23:50;;;;;;;26.20;23.60;;;;;;;;;;7377306;19;20416;-79
2022/03/25 11:26:23;;;;;;;30.00;25.47;;;42.00;9.00;;;;;;7374088;19;20422;-77
2022/03/25 11:29:00;;;;;;;31.10;26.17;;;36.90;12.50;;;;;;7374937;19;20372;-77
2022/03/25 11:31:30;;;;;;;35.77;29.00;;;32.80;14.10;;;;;;7363791;19;20871;-76
2022/03/25 11:34:12;;;;;;;39.13;25.30;;;30.90;15.60;;;;;;7368827;19;20437;-76
2022/03/25 11:36:45;;;;;;;32.60;24.70;;;29.70;16.00;;;;;;7374952;19;20408;-76
2022/03/25 11:39:25;;;;;;;25.57;21.97;;;28.50;16.50;;;;;;7375677;19;20368;-76
2022/03/25 11:41:56;;;;;;;30.07;24.17;;;28.00;17.20;;;;;;7373042;19;20437;-77
2022/03/25 11:44:29;;;;;;;28.17;22.17;;;27.50;17.40;;;;;;7368285;19;20436;-77
2022/03/25 11:47:18;;;;;;;30.50;24.03;;;26.00;18.40;;;;;;7376910;19;20939;-76
2022/03/25 11:49:49;;;;;;;28.80;23.40;;;26.00;19.20;;;;;;7377869;19;20388;-77
2022/03/25 11:52:33;;;;;;;27.53;22.47;;;26.40;19.10;;;;;;7371821;19;20430;-76
2022/03/25 11:55:04;;;;;;;33.90;23.70;;;26.50;18.60;;;;;;7375860;19;20447;-77
2022/03/25 11:57:35;;;;;;;32.27;24.23;;;26.60;18.50;;;;;;7371194;19;20428;-77
2022/03/25 12:00:11;;;;;;;31.60;23.10;;;26.80;18.30;;;;;;7378385;19;20423;-76
2022/03/25 12:02:43;;;;;;;30.63;23.93;;;26.70;18.40;;;;;;7363112;19;20420;-77
2022/03/25 12:05:40;;;;;;;33.43;23.87;;;27.10;18.20;;;;;;7366946;19;21292;-77
2022/03/25 12:08:28;;;;;;;29.27;21.43;;;26.80;18.40;;;;;;7365979;19;20501;-76
2022/03/25 12:10:59;;;;;;;31.70;23.60;;;26.50;18.30;;;;;;7377011;19;20510;-76
2022/03/25 12:13:58;;;;;;;32.63;22.87;;;26.50;19.00;;;;;;7382889;19;20424;-76
2022/03/25 12:17:00;;;;;;;27.47;21.77;;;26.60;18.80;;;;;;7381789;19;20423;-76
2022/03/25 12:19:54;;;;;;;29.97;20.20;;;26.30;18.50;;;;;;7379744;19;20419;-76
2022/03/25 12:22:32;;;;;;;25.87;19.87;;;26.00;18.80;;;;;;7378853;19;21264;-75
2022/03/25 12:25:10;;;;;;;26.70;20.33;;;25.70;18.10;;;;;;7376214;19;20439;-76
2022/03/25 12:27:40;;;;;;;25.80;19.97;;;25.70;18.00;;;;;;7382366;19;20379;-75
2022/03/25 12:30:11;;;;;;;24.60;19.33;;;26.00;18.10;;;;;;7380676;19;20423;-75
2022/03/25 12:32:41;;;;;;;23.70;19.93;;;26.10;18.20;;;;;;7386406;19;20409;-75
2022/03/25 12:35:16;;;;;;;27.30;19.47;;;25.50;17.70;;;;;;7379370;19;20407;-76
2022/03/25 12:37:54;;;;;;;27.27;19.57;;;25.50;18.30;;;;;;7382528;19;20420;-76
2022/03/25 12:40:26;;;;;;;26.80;19.70;;;25.90;18.80;;;;;;7377294;19;20399;-76
2022/03/25 12:42:58;;;;;;;32.30;21.20;;;25.70;19.20;;;;;;7380293;19;20463;-76
2022/03/25 12:45:34;;;;;;;27.97;20.30;;;26.00;19.10;;;;;;7378203;19;20423;-77
2022/03/25 12:48:10;;;;;;;27.03;20.60;;;25.10;18.50;;;;;;7379943;19;20401;-76
2022/03/25 12:50:48;;;;;;;27.10;19.60;;;25.10;19.00;;;;;;7383772;19;20761;-76
2022/03/25 12:53:18;;;;;;;29.30;20.97;;;25.70;19.50;;;;;;7375722;19;21081;-77
2022/03/25 12:55:48;;;;;;;31.77;22.53;;;25.90;20.10;;;;;;7363464;19;20473;-77
2022/03/25 12:58:17;;;;;;;29.13;21.97;;;26.10;19.50;;;;;;7374285;19;20404;-80
2022/03/25 13:00:51;;;;;;;27.63;21.47;;;25.90;19.80;;;;;;7384734;19;20536;-79
2022/03/25 13:03:23;;;;;;;30.67;21.27;;;26.10;19.90;;;;;;7384049;19;20438;-75
2022/03/25 13:06:00;;;;;;;30.23;22.73;;;26.30;20.10;;;;;;7385500;19;20372;-76
2022/03/25 13:08:29;;;;;;;26.20;19.60;;;26.00;19.00;;;;;;7389188;19;20396;-77
2022/03/25 13:11:01;;;;;;;29.77;19.80;;;25.20;19.00;;;;;;7392726;19;20408;-80
2022/03/25 13:13:38;;;;;;;26.50;19.47;;;25.60;19.40;;;;;;7425700;19;20447;-83
2022/03/25 13:16:09;;;;;;;27.87;20.33;;;24.80;18.80;;;;;;7422774;19;20403;-81
2022/03/25 13:18:41;;;;;;;30.87;24.00;;;24.40;19.60;;;;;;7396503;19;20450;-83
2022/03/25 13:21:14;;;;;;;30.03;21.60;;;24.30;20.60;;;;;;7418747;19;20415;-82
2022/03/25 13:23:43;;;;;;;26.73;20.90;;;25.00;20.70;;;;;;7413767;19;20409;-83
2022/03/25 13:26:15;;;;;;;27.63;20.90;;;25.40;20.60;;;;;;7416477;19;20407;-81
2022/03/25 13:28:46;;;;;;;26.17;18.90;;;25.60;19.90;;;;;;7428584;19;20397;-83
2022/03/25 13:31:15;;;;;;;28.70;21.00;;;25.60;19.40;;;;;;7430170;19;20459;-80
2022/03/25 13:33:52;;;;;;;25.43;19.43;;;25.70;19.80;;;;;;7432245;19;20420;-82
2022/03/25 13:36:30;;;;;;;29.63;21.63;;;25.90;19.20;;;;;;7434375;19;20416;-85
2022/03/25 13:39:12;;;;;;;34.37;21.93;;;25.90;19.30;;;;;;7425645;19;20416;-86
2022/03/25 13:41:42;;;;;;;28.07;20.70;;;25.80;19.10;;;;;;7384969;19;20443;-79
2022/03/25 13:44:13;;;;;;;29.13;22.17;;;26.00;19.40;;;;;;7387122;19;20384;-81
2022/03/25 13:46:43;;;;;;;30.53;23.30;;;26.00;19.60;;;;;;7377017;19;20488;-79
2022/03/25 13:49:17;;;;;;;27.67;19.17;;;26.10;19.80;;;;;;7382718;19;20413;-79
2022/03/25 13:51:49;;;;;;;30.03;22.13;;;26.10;20.20;;;;;;7378180;19;20482;-82
2022/03/25 13:54:30;;;;;;;32.30;22.73;;;25.90;19.90;;;;;;7378307;19;20435;-80
2022/03/25 13:57:04;;;;;;;29.03;21.47;;;25.80;19.90;;;;;;7370622;19;20441;-79
2022/03/25 13:59:40;;;;;;;28.23;20.63;;;25.80;19.30;;;;;;7377016;19;20408;-77
2022/03/25 14:02:24;;;;;;;28.73;21.40;;;25.70;19.20;;;;;;7380069;19;20491;-79
2022/03/25 14:04:53;;;;;;;29.37;20.37;;;25.80;19.10;;;;;;7372756;19;20401;-80
2022/03/25 14:07:25;;;;;;;30.83;20.90;;;25.80;19.20;;;;;;7370656;19;20408;-77
2022/03/25 14:09:57;;;;;;;29.40;20.73;;;25.80;19.20;;;;;;7361879;19;21086;-75
2022/03/25 14:12:28;;;;;;;28.17;21.07;;;25.40;19.90;;;;;;7364382;19;20404;-76
2022/03/25 14:15:00;;;;;;;28.17;20.20;;;25.70;19.50;;;;;;7374175;19;20764;-76
2022/03/25 14:17:31;;;;;;;27.83;20.57;;;25.70;19.20;;;;;;7377089;19;20384;-78
2022/03/25 14:20:01;;;;;;;27.67;20.93;;;25.60;19.40;;;;;;7376787;19;20390;-76